Appleton, Illinois
Current Conditions -  °F | °C
As of 7:35 PM on Friday 19 Dec 2014 (Local Time) from KGBG Reporting Station
Overcast Overcast  
Wind Chill: -4°   Ceiling: 5500
Heat Index: -2°   Visibility: 10mi
Dew Point: -5°   Wind: 5mph
Humidity: 81%   Direction: 100°E
Pressure: 30.26"   Gusts: NA
Location:  40.9602°N, 90.1517°W
Report Text: KGBG 200135Z AUTO 10004KT 10SM OVC055 M02/M04 A3026 RMK AO2 T10161045
Loading
Personal Weather Stations






























Interactive Weather Map New forecast layout! Learn more

10-Day Weather Forecast

Advertisements
Track Severe Weather on mobile